createdAt,value
2022-08-05T00:00:46.297Z,15.80
2022-08-05T00:03:15.858Z,18.63
2022-08-05T00:06:05.671Z,18.63
2022-08-05T00:08:35.500Z,17.52
2022-08-05T00:11:20.791Z,15.10
2022-08-05T00:13:56.493Z,15.48
2022-08-05T00:16:36.532Z,14.60
2022-08-05T00:19:13.145Z,16.83
2022-08-05T00:21:42.730Z,20.48
2022-08-05T00:24:16.115Z,19.20
2022-08-05T00:26:51.655Z,18.88
2022-08-05T00:29:22.369Z,22.73
2022-08-05T00:32:09.436Z,17.27
2022-08-05T00:34:55.195Z,18.55
2022-08-05T00:37:35.408Z,18.48
2022-08-05T00:40:17.747Z,19.55
2022-08-05T00:42:57.307Z,18.30
2022-08-05T00:45:38.783Z,15.20
2022-08-05T00:48:13.061Z,19.40
2022-08-05T00:50:44.113Z,16.70
2022-08-05T00:54:00.031Z,16.75
2022-08-05T00:56:01.596Z,20.65
2022-08-05T00:58:31.316Z,23.13
2022-08-05T01:00:59.558Z,16.23
2022-08-05T01:03:31.119Z,18.33
2022-08-05T01:06:03.960Z,16.48
2022-08-05T01:08:44.282Z,14.90
2022-08-05T01:11:22.409Z,12.15
2022-08-05T01:14:02.638Z,15.90
2022-08-05T01:16:35.140Z,22.13
2022-08-05T01:19:14.362Z,18.08
2022-08-05T01:22:15.511Z,15.80
2022-08-05T01:25:00.828Z,11.60
2022-08-05T01:27:57.670Z,13.05
2022-08-05T01:30:34.881Z,15.98
2022-08-05T01:33:08.285Z,20.38
2022-08-05T01:35:52.172Z,19.05
2022-08-05T01:38:24.788Z,15.93
2022-08-05T01:40:58.465Z,16.92
2022-08-05T01:43:29.446Z,19.90
2022-08-05T01:46:07.160Z,18.88
2022-08-05T01:48:49.762Z,19.85
2022-08-05T01:51:19.763Z,19.83
2022-08-05T01:53:57.823Z,19.05
2022-08-05T01:58:13.647Z,17.23
2022-08-05T01:59:24.581Z,17.58
2022-08-05T02:01:57.744Z,20.77
2022-08-05T02:04:29.951Z,17.95
2022-08-05T02:06:59.855Z,19.08
2022-08-05T02:09:32.273Z,16.02
2022-08-05T02:12:10.110Z,18.25
2022-08-05T02:14:47.136Z,17.80
2022-08-05T02:18:28.478Z,16.70
2022-08-05T02:20:21.217Z,17.15
2022-08-05T02:22:57.170Z,14.80
2022-08-05T02:25:33.273Z,18.08
2022-08-05T02:28:08.973Z,19.38
2022-08-05T02:30:54.181Z,16.23
2022-08-05T02:33:24.634Z,16.95
2022-08-05T02:36:09.332Z,17.95
2022-08-05T02:38:38.768Z,21.30
2022-08-05T02:41:17.003Z,18.88
2022-08-05T02:44:06.320Z,17.08
2022-08-05T02:46:53.493Z,18.48
2022-08-05T02:49:37.006Z,17.02
2022-08-05T02:52:10.058Z,15.45
2022-08-05T02:54:42.297Z,15.90
2022-08-05T02:58:19.659Z,16.40
2022-08-05T03:00:10.745Z,16.00
2022-08-05T03:02:43.038Z,17.27
2022-08-05T03:05:14.780Z,15.57
2022-08-05T03:08:01.081Z,16.88
2022-08-05T03:10:32.510Z,15.57
2022-08-05T03:15:29.269Z,16.98
2022-08-05T03:17:59.345Z,19.85
2022-08-05T03:20:27.870Z,17.63
2022-08-05T03:22:57.677Z,19.05
2022-08-05T03:25:33.207Z,20.25
2022-08-05T03:28:18.734Z,21.45
2022-08-05T03:30:49.693Z,20.15
2022-08-05T03:33:21.849Z,26.73
2022-08-05T03:35:51.709Z,32.17
2022-08-05T03:38:32.970Z,19.40
2022-08-05T03:41:08.381Z,24.42
2022-08-05T03:44:09.871Z,18.75
2022-08-05T03:46:26.674Z,29.88
2022-08-05T03:48:59.650Z,36.40
2022-08-05T03:52:35.477Z,20.50
2022-08-05T03:55:49.952Z,31.10
2022-08-05T03:57:35.132Z,19.10
2022-08-05T04:00:15.941Z,18.75
2022-08-05T04:02:58.105Z,21.35
2022-08-05T04:05:34.599Z,19.17
2022-08-05T04:08:05.655Z,22.38
2022-08-05T04:10:44.847Z,15.70
2022-08-05T04:13:13.705Z,22.42
2022-08-05T04:16:03.319Z,15.30
2022-08-05T04:18:30.539Z,17.55
2022-08-05T04:21:00.233Z,14.95
2022-08-05T04:24:04.909Z,17.75
2022-08-05T04:26:18.731Z,16.50
2022-08-05T04:28:51.128Z,18.95
2022-08-05T04:31:20.728Z,19.67
2022-08-05T04:34:17.269Z,16.65
2022-08-05T04:36:49.864Z,18.23
2022-08-05T04:39:18.672Z,15.07
2022-08-05T04:41:48.156Z,13.13
2022-08-05T04:44:21.413Z,19.17
2022-08-05T04:46:57.601Z,17.58
2022-08-05T04:49:39.148Z,17.75
2022-08-05T04:52:16.701Z,15.80
2022-08-05T04:54:47.197Z,17.70
2022-08-05T04:57:18.397Z,24.50
2022-08-05T04:59:48.006Z,18.38
2022-08-05T05:02:36.948Z,22.40
2022-08-05T05:05:17.016Z,22.50
2022-08-05T05:08:01.693Z,18.80
2022-08-05T05:10:33.377Z,24.25
2022-08-05T05:13:04.342Z,21.58
2022-08-05T05:15:57.135Z,19.38
2022-08-05T05:18:28.694Z,17.98
2022-08-05T05:21:03.259Z,18.23
2022-08-05T05:24:02.078Z,17.65
2022-08-05T05:26:28.677Z,16.73
2022-08-05T05:29:02.609Z,20.58
2022-08-05T05:34:05.730Z,20.23
2022-08-05T05:36:37.276Z,16.45
2022-08-05T05:39:11.060Z,16.60
2022-08-05T05:41:41.891Z,15.80
2022-08-05T05:44:36.897Z,19.30
2022-08-05T05:47:04.322Z,19.83
2022-08-05T05:49:33.463Z,19.73
2022-08-05T05:52:05.932Z,20.58
2022-08-05T05:54:50.941Z,17.65
2022-08-05T05:57:20.481Z,18.73
2022-08-05T05:59:49.214Z,22.30
2022-08-05T06:02:32.880Z,20.88
2022-08-05T06:05:10.266Z,21.27
2022-08-05T06:08:01.397Z,14.80
2022-08-05T06:10:36.352Z,19.58
2022-08-05T06:13:05.582Z,21.13
2022-08-05T06:16:29.922Z,17.08
2022-08-05T06:18:31.009Z,19.00
2022-08-05T06:21:01.064Z,17.70
2022-08-05T06:23:32.230Z,15.82
2022-08-05T06:26:20.804Z,16.05
2022-08-05T06:28:49.928Z,19.88
2022-08-05T06:31:22.404Z,17.90
2022-08-05T06:34:07.613Z,17.08
2022-08-05T06:36:57.618Z,21.92
2022-08-05T06:39:27.209Z,20.40
2022-08-05T06:42:04.058Z,20.13
2022-08-05T06:44:32.784Z,17.40
2022-08-05T06:47:02.218Z,19.10
2022-08-05T06:50:00.375Z,20.83
2022-08-05T06:52:37.007Z,17.10
2022-08-05T06:55:07.633Z,18.73
2022-08-05T06:58:03.158Z,19.42
2022-08-05T07:00:25.995Z,16.85
2022-08-05T07:02:54.503Z,19.40
2022-08-05T07:05:37.469Z,23.15
2022-08-05T07:08:10.598Z,19.75
2022-08-05T07:10:53.002Z,16.52
2022-08-05T07:13:58.206Z,22.02
2022-08-05T07:18:08.130Z,15.23
2022-08-05T07:22:34.241Z,16.90
2022-08-05T07:25:21.780Z,18.23
2022-08-05T07:27:58.272Z,16.38
2022-08-05T07:30:34.697Z,21.25
2022-08-05T07:33:10.397Z,16.55
2022-08-05T07:36:02.307Z,14.70
2022-08-05T07:38:35.692Z,18.30
2022-08-05T07:42:06.759Z,18.15
2022-08-05T07:44:02.306Z,14.18
2022-08-05T07:46:34.550Z,12.90
2022-08-05T07:49:07.754Z,17.83
2022-08-05T07:51:40.391Z,13.88
2022-08-05T07:54:11.450Z,18.80
2022-08-05T07:57:14.734Z,15.77
2022-08-05T07:59:31.365Z,17.05
2022-08-05T08:02:16.082Z,19.15
2022-08-05T08:04:48.352Z,22.33
2022-08-05T08:07:18.570Z,19.90
2022-08-05T08:09:53.139Z,16.50
2022-08-05T08:12:33.294Z,17.27
2022-08-05T08:15:15.159Z,15.88
2022-08-05T08:17:52.572Z,28.25
2022-08-05T08:20:59.705Z,17.60
2022-08-05T08:24:01.136Z,14.68
2022-08-05T08:26:02.762Z,14.70
2022-08-05T08:28:36.631Z,15.32
2022-08-05T08:31:15.117Z,14.70
2022-08-05T08:33:51.625Z,16.35
2022-08-05T08:36:38.691Z,12.80
2022-08-05T08:39:15.747Z,14.80
2022-08-05T08:41:51.168Z,21.60
2022-08-05T08:45:19.918Z,16.98
2022-08-05T08:47:21.930Z,17.98
2022-08-05T08:50:22.405Z,12.85
2022-08-05T08:52:54.025Z,18.77
2022-08-05T08:55:32.147Z,16.75
2022-08-05T08:58:16.105Z,15.30
2022-08-05T09:00:45.129Z,13.82
2022-08-05T09:03:16.298Z,20.00
2022-08-05T09:06:08.530Z,20.08
2022-08-05T09:08:40.063Z,19.55
2022-08-05T09:11:12.183Z,16.65
2022-08-05T09:14:09.139Z,12.45
2022-08-05T09:16:31.672Z,14.30
2022-08-05T09:19:00.151Z,15.25
2022-08-05T09:22:17.675Z,14.60
2022-08-05T09:24:18.661Z,12.13
2022-08-05T09:26:51.847Z,15.27
2022-08-05T09:29:20.933Z,17.15
2022-08-05T09:32:40.092Z,14.00
2022-08-05T09:34:55.032Z,14.63
2022-08-05T09:38:12.580Z,13.55
2022-08-05T09:40:30.637Z,18.75
2022-08-05T09:43:01.158Z,13.52
2022-08-05T09:46:07.571Z,17.38
2022-08-05T09:48:31.426Z,14.52
2022-08-05T09:51:02.109Z,12.00
2022-08-05T09:53:53.201Z,14.32
2022-08-05T09:56:27.541Z,16.13
2022-08-05T09:59:00.626Z,17.85
2022-08-05T10:01:31.815Z,18.48
2022-08-05T10:04:10.095Z,18.55
2022-08-05T10:06:41.470Z,16.70
2022-08-05T10:09:28.090Z,16.90
2022-08-05T10:12:18.925Z,18.73
2022-08-05T10:15:17.011Z,17.85
2022-08-05T10:18:02.687Z,16.30
2022-08-05T10:20:33.990Z,13.95
2022-08-05T10:23:03.376Z,10.98
2022-08-05T10:25:33.212Z,12.57
2022-08-05T10:28:13.129Z,13.57
2022-08-05T10:32:52.513Z,13.90
2022-08-05T10:33:36.173Z,12.98
2022-08-05T10:36:05.769Z,12.98
2022-08-05T10:38:36.746Z,10.75
2022-08-05T10:41:13.851Z,11.68
2022-08-05T10:43:51.878Z,13.35
2022-08-05T10:46:23.848Z,11.70
2022-08-05T10:49:01.501Z,11.70
2022-08-05T10:51:57.782Z,13.52
2022-08-05T10:54:56.791Z,13.82
2022-08-05T10:57:32.473Z,11.25
2022-08-05T11:00:17.867Z,15.18
2022-08-05T11:03:24.720Z,12.38
2022-08-05T11:06:16.074Z,16.10
2022-08-05T11:09:16.916Z,13.27
2022-08-05T11:11:53.653Z,10.85
2022-08-05T11:14:57.571Z,9.25
2022-08-05T11:18:00.117Z,11.85
2022-08-05T11:20:39.124Z,11.80
2022-08-05T11:24:04.354Z,13.38
2022-08-05T11:26:29.110Z,13.52
2022-08-05T11:29:11.552Z,10.00
2022-08-05T11:31:54.014Z,11.05
2022-08-05T11:34:38.687Z,14.38
2022-08-05T11:38:28.421Z,9.02
2022-08-05T11:40:03.010Z,10.15
2022-08-05T11:42:37.977Z,12.25
2022-08-05T11:45:23.109Z,11.40
2022-08-05T11:48:00.044Z,8.45
2022-08-05T11:50:29.132Z,6.95
2022-08-05T11:52:58.399Z,11.45
2022-08-05T11:55:32.151Z,10.25
2022-08-05T11:58:09.203Z,26.70
2022-08-05T12:00:41.330Z,10.30
2022-08-05T12:03:29.499Z,8.15
2022-08-05T12:06:02.811Z,7.13
2022-08-05T12:08:32.741Z,7.72
2022-08-05T12:11:05.626Z,6.63
2022-08-05T12:13:48.933Z,8.15
2022-08-05T12:16:26.936Z,6.85
2022-08-05T12:18:56.984Z,6.80
2022-08-05T12:21:29.914Z,7.82
2022-08-05T12:24:05.275Z,6.50
2022-08-05T12:26:36.845Z,7.32
2022-08-05T12:29:09.790Z,6.10
2022-08-05T12:31:53.072Z,10.80
2022-08-05T12:34:28.162Z,7.35
2022-08-05T12:36:57.932Z,7.38
2022-08-05T12:39:28.182Z,6.97
2022-08-05T12:42:14.882Z,6.63
2022-08-05T12:44:45.747Z,5.90
2022-08-05T12:47:28.837Z,4.80
2022-08-05T12:50:03.090Z,7.60
2022-08-05T12:52:41.780Z,8.02
2022-08-05T12:55:22.166Z,5.95
2022-08-05T12:58:50.396Z,4.93
2022-08-05T13:02:03.858Z,5.95
2022-08-05T13:03:41.810Z,4.50
2022-08-05T13:06:16.929Z,6.18
2022-08-05T13:08:52.482Z,4.45
2022-08-05T13:11:57.859Z,5.85
2022-08-05T13:14:20.076Z,5.45
2022-08-05T13:16:59.039Z,6.18
2022-08-05T13:19:40.471Z,5.75
2022-08-05T13:22:29.444Z,5.22
2022-08-05T13:25:05.780Z,4.68
2022-08-05T13:27:40.870Z,4.63
2022-08-05T13:30:34.984Z,5.10
2022-08-05T13:33:01.747Z,4.47
2022-08-05T13:35:47.342Z,4.38
2022-08-05T13:38:30.529Z,6.68
2022-08-05T13:41:03.781Z,8.70
2022-08-05T13:43:43.467Z,7.18
2022-08-05T13:46:16.179Z,5.40
2022-08-05T13:48:58.358Z,4.45
2022-08-05T13:51:36.571Z,5.00
2022-08-05T13:54:11.829Z,6.40
2022-08-05T13:56:50.996Z,6.18
2022-08-05T13:59:23.998Z,5.78
2022-08-05T14:01:57.425Z,5.88
2022-08-05T14:04:50.307Z,4.95
2022-08-05T14:07:55.410Z,8.55
2022-08-05T14:10:14.175Z,4.82
2022-08-05T14:12:48.431Z,4.57
2022-08-05T14:16:09.286Z,5.47
2022-08-05T14:18:14.789Z,7.60
2022-08-05T14:20:47.249Z,5.18
2022-08-05T14:23:23.827Z,5.32
2022-08-05T14:25:58.187Z,4.50
2022-08-05T14:28:29.594Z,4.57
2022-08-05T14:30:58.602Z,4.90
2022-08-05T14:33:26.877Z,4.60
2022-08-05T14:35:55.342Z,5.03
2022-08-05T14:38:31.612Z,6.90
2022-08-05T14:41:07.727Z,4.53
2022-08-05T14:43:58.911Z,4.63
2022-08-05T14:46:29.052Z,5.30
2022-08-05T14:48:59.514Z,4.55
2022-08-05T14:51:32.248Z,5.93
2022-08-05T14:54:26.262Z,5.22
2022-08-05T14:56:50.980Z,5.18
2022-08-05T14:59:22.022Z,4.88
2022-08-05T15:01:50.753Z,3.75
2022-08-05T15:04:20.730Z,5.55
2022-08-05T15:06:51.244Z,4.20
2022-08-05T15:09:52.487Z,4.78
2022-08-05T15:12:11.805Z,4.13
2022-08-05T15:14:50.176Z,4.60
2022-08-05T15:17:47.231Z,4.78
2022-08-05T15:20:18.934Z,4.10
2022-08-05T15:22:55.119Z,4.30
2022-08-05T15:25:40.969Z,3.88
2022-08-05T15:28:15.443Z,5.90
2022-08-05T15:30:45.859Z,4.05
2022-08-05T15:33:56.874Z,4.32
2022-08-05T15:36:04.951Z,6.20
2022-08-05T15:38:40.956Z,4.95
2022-08-05T15:41:20.459Z,6.90
2022-08-05T15:43:54.659Z,4.45
2022-08-05T15:46:24.811Z,4.20
2022-08-05T15:49:00.994Z,4.88
2022-08-05T15:52:10.017Z,5.30
2022-08-05T15:54:34.812Z,7.60
2022-08-05T15:57:07.334Z,4.70
2022-08-05T15:59:38.160Z,4.75
2022-08-05T16:02:09.590Z,6.03
2022-08-05T16:04:44.114Z,10.85
2022-08-05T16:07:13.356Z,11.73
2022-08-05T16:09:42.205Z,18.23
2022-08-05T16:12:12.148Z,11.77
2022-08-05T16:14:42.372Z,16.63
2022-08-05T16:17:12.667Z,13.55
2022-08-05T16:20:04.779Z,16.92
2022-08-05T16:22:34.058Z,12.75
2022-08-05T16:25:05.305Z,13.80
2022-08-05T16:27:59.937Z,16.55
2022-08-05T16:30:28.849Z,15.30
2022-08-05T16:32:58.437Z,19.02
2022-08-05T16:35:28.686Z,18.23
2022-08-05T16:38:15.554Z,14.88
2022-08-05T16:40:51.731Z,17.10
2022-08-05T16:43:25.087Z,12.88
2022-08-05T16:46:05.422Z,12.07
2022-08-05T16:48:38.250Z,15.18
2022-08-05T16:51:09.913Z,12.18
2022-08-05T16:54:04.112Z,13.68
2022-08-05T16:56:30.197Z,16.75
2022-08-05T16:58:58.887Z,10.25
2022-08-05T17:01:54.063Z,20.35
2022-08-05T17:04:20.137Z,14.70
2022-08-05T17:06:53.305Z,16.40
2022-08-05T17:09:23.213Z,14.50
2022-08-05T17:11:56.088Z,11.27
2022-08-05T17:14:37.326Z,13.85
2022-08-05T17:17:14.386Z,12.65
2022-08-05T17:19:46.070Z,13.23
2022-08-05T17:22:24.561Z,10.63
2022-08-05T17:24:57.563Z,10.48
2022-08-05T17:27:33.746Z,9.23
2022-08-05T17:30:12.133Z,11.20
2022-08-05T17:32:48.793Z,9.95
2022-08-05T17:35:20.631Z,13.27
2022-08-05T17:37:49.515Z,10.40
2022-08-05T17:40:22.584Z,13.68
2022-08-05T17:42:53.204Z,10.23
2022-08-05T17:45:37.967Z,9.52
2022-08-05T17:48:08.856Z,9.70
2022-08-05T17:50:37.361Z,8.45
2022-08-05T17:53:08.609Z,11.73
2022-08-05T17:55:39.766Z,8.20
2022-08-05T17:58:16.457Z,12.48
2022-08-05T18:00:50.920Z,9.30
2022-08-05T18:03:59.550Z,15.40
2022-08-05T18:06:15.029Z,11.02
2022-08-05T18:08:46.177Z,13.27
2022-08-05T18:11:23.876Z,15.43
2022-08-05T18:13:53.651Z,13.70
2022-08-05T18:16:21.875Z,16.15
2022-08-05T18:18:51.545Z,18.27
2022-08-05T18:21:22.668Z,15.65
2022-08-05T18:23:53.860Z,14.52
2022-08-05T18:26:27.474Z,10.75
2022-08-05T18:28:58.606Z,11.75
2022-08-05T18:31:33.144Z,15.30
2022-08-05T18:34:05.761Z,16.27
2022-08-05T18:36:36.285Z,16.50
2022-08-05T18:39:06.497Z,16.73
2022-08-05T18:41:55.477Z,17.17
2022-08-05T18:44:34.798Z,15.25
2022-08-05T18:47:04.893Z,12.98
2022-08-05T18:49:58.021Z,16.30
2022-08-05T18:52:35.999Z,13.30
2022-08-05T18:55:10.304Z,16.83
2022-08-05T18:57:43.359Z,16.80
2022-08-05T19:00:27.265Z,15.95
2022-08-05T19:03:04.125Z,14.65
2022-08-05T19:06:12.842Z,15.48
2022-08-05T19:08:30.264Z,18.13
2022-08-05T19:11:02.774Z,16.88
2022-08-05T19:13:35.920Z,15.30
2022-08-05T19:16:25.341Z,17.48
2022-08-05T19:18:56.784Z,14.85
2022-08-05T19:21:29.527Z,17.20
2022-08-05T19:24:09.001Z,13.32
2022-08-05T19:26:54.803Z,18.63
2022-08-05T19:29:26.703Z,17.85
2022-08-05T19:32:04.635Z,13.85
2022-08-05T19:34:33.110Z,14.93
2022-08-05T19:37:02.925Z,12.02
2022-08-05T19:39:31.910Z,15.15
2022-08-05T19:42:15.322Z,21.15
2022-08-05T19:44:44.938Z,15.07
2022-08-05T19:47:16.410Z,17.73
2022-08-05T19:49:45.113Z,12.73
2022-08-05T19:52:31.674Z,13.43
2022-08-05T19:55:07.203Z,12.30
2022-08-05T19:58:06.886Z,13.40
2022-08-05T20:00:38.500Z,13.07
2022-08-05T20:03:08.644Z,11.85
2022-08-05T20:05:43.268Z,9.43
2022-08-05T20:08:20.161Z,13.90
2022-08-05T20:10:49.464Z,12.02
2022-08-05T20:13:30.349Z,12.75
2022-08-05T20:16:07.752Z,11.20
2022-08-05T20:18:37.525Z,9.05
2022-08-05T20:21:06.965Z,10.40
2022-08-05T20:23:40.342Z,9.85
2022-08-05T20:26:20.826Z,17.02
2022-08-05T20:28:50.912Z,13.40
2022-08-05T20:31:21.647Z,15.98
2022-08-05T20:33:56.733Z,15.02
2022-08-05T20:36:25.884Z,18.20
2022-08-05T20:38:57.789Z,13.77
2022-08-05T20:41:44.160Z,12.50
2022-08-05T20:44:17.524Z,12.55
2022-08-05T20:46:48.567Z,10.30
2022-08-05T20:49:24.062Z,16.80
2022-08-05T20:51:54.447Z,12.63
2022-08-05T20:54:25.327Z,14.52
2022-08-05T20:56:53.892Z,11.93
2022-08-05T20:59:26.929Z,23.25
2022-08-05T21:02:10.714Z,15.35
2022-08-05T21:04:39.270Z,16.70
2022-08-05T21:07:08.918Z,16.17
2022-08-05T21:09:38.591Z,12.65
2022-08-05T21:12:21.931Z,14.20
2022-08-05T21:14:54.996Z,12.95
2022-08-05T21:17:26.181Z,15.52
2022-08-05T21:19:57.287Z,9.68
2022-08-05T21:22:27.490Z,16.55
2022-08-05T21:24:57.945Z,14.52
2022-08-05T21:27:27.466Z,15.73
2022-08-05T21:29:57.005Z,18.13
2022-08-05T21:32:25.513Z,19.95
2022-08-05T21:35:09.012Z,12.25
2022-08-05T21:37:47.444Z,12.23
2022-08-05T21:40:23.781Z,14.15
2022-08-05T21:42:53.930Z,12.38
2022-08-05T21:45:24.941Z,9.45
2022-08-05T21:48:08.121Z,14.52
2022-08-05T21:50:37.393Z,15.23
2022-08-05T21:53:16.252Z,15.63
2022-08-05T21:56:05.295Z,17.98
2022-08-05T21:58:34.818Z,13.77
2022-08-05T22:01:05.947Z,11.68
2022-08-05T22:03:48.998Z,16.67
2022-08-05T22:06:35.498Z,15.18
2022-08-05T22:09:13.887Z,16.52
2022-08-05T22:11:46.999Z,14.07
2022-08-05T22:14:34.667Z,15.25
2022-08-05T22:17:07.041Z,10.90
2022-08-05T22:19:57.246Z,10.60
2022-08-05T22:22:28.125Z,12.30
2022-08-05T22:25:21.586Z,14.63
2022-08-05T22:28:08.275Z,13.20
2022-08-05T22:30:44.270Z,13.88
2022-08-05T22:33:57.518Z,12.88
2022-08-05T22:36:15.365Z,15.75
2022-08-05T22:38:48.336Z,12.73
2022-08-05T22:42:04.921Z,17.85
2022-08-05T22:44:09.695Z,16.05
2022-08-05T22:46:41.119Z,16.27
2022-08-05T22:49:23.070Z,17.08
2022-08-05T22:52:04.498Z,14.60
2022-08-05T22:54:36.743Z,18.23
2022-08-05T22:57:05.933Z,14.52
2022-08-05T22:59:43.784Z,14.63
2022-08-05T23:02:17.655Z,16.00
2022-08-05T23:04:51.550Z,17.70
2022-08-05T23:07:22.169Z,19.98
2022-08-05T23:09:58.131Z,15.10
2022-08-05T23:12:32.388Z,18.08
2022-08-05T23:15:08.521Z,15.07
2022-08-05T23:18:01.458Z,12.73
2022-08-05T23:20:26.099Z,15.75
2022-08-05T23:22:55.842Z,14.30
2022-08-05T23:25:52.346Z,13.15
2022-08-05T23:28:15.961Z,15.45
2022-08-05T23:30:53.799Z,11.60
2022-08-05T23:33:26.223Z,18.88
2022-08-05T23:36:13.459Z,16.27
2022-08-05T23:38:43.501Z,14.32
2022-08-05T23:41:12.796Z,15.77
2022-08-05T23:44:04.290Z,12.63
2022-08-05T23:46:31.283Z,14.27
2022-08-05T23:49:02.174Z,15.57
2022-08-05T23:52:03.028Z,17.15
2022-08-05T23:54:38.267Z,13.10
2022-08-05T23:57:08.177Z,16.42
